createdAt,value
2018-12-25T00:01:27.430Z,2.60
2018-12-25T00:04:07.950Z,2.60
2018-12-25T00:06:48.289Z,2.60
2018-12-25T00:09:28.730Z,2.60
2018-12-25T00:12:09.121Z,2.60
2018-12-25T00:14:49.833Z,2.60
2018-12-25T00:17:28.684Z,2.70
2018-12-25T00:20:16.616Z,2.80
2018-12-25T00:23:04.480Z,2.70
2018-12-25T00:31:43.979Z,2.60
2018-12-25T00:34:33.569Z,2.60
2018-12-25T00:37:21.466Z,2.60
2018-12-25T00:43:16.235Z,2.60
2018-12-25T00:46:04.100Z,2.60
2018-12-25T00:48:45.190Z,2.60
2018-12-25T00:51:25.864Z,2.60
2018-12-25T00:54:06.271Z,2.60
2018-12-25T00:56:46.714Z,2.60
2018-12-25T00:59:27.123Z,2.60
2018-12-25T01:02:07.681Z,2.50
2018-12-25T01:04:48.284Z,2.60
2018-12-25T01:07:28.835Z,2.60
2018-12-25T01:10:09.869Z,2.50
2018-12-25T01:12:50.944Z,2.50
2018-12-25T01:15:31.670Z,2.60
2018-12-25T01:18:12.246Z,2.60
2018-12-25T01:20:53.095Z,2.60
2018-12-25T01:23:33.817Z,2.60
2018-12-25T01:26:14.509Z,2.60
2018-12-25T01:28:55.341Z,2.60
2018-12-25T01:31:35.821Z,2.60
2018-12-25T01:34:16.319Z,2.60
2018-12-25T01:36:56.777Z,2.60
2018-12-25T01:39:37.444Z,2.60
2018-12-25T01:42:18.283Z,2.60
2018-12-25T01:44:58.855Z,2.60
2018-12-25T01:47:39.356Z,2.60
2018-12-25T01:50:19.924Z,2.60
2018-12-25T01:53:00.786Z,2.70
2018-12-25T01:55:41.193Z,2.70
2018-12-25T01:58:21.855Z,2.70
2018-12-25T02:01:02.453Z,2.70
2018-12-25T02:03:43.115Z,2.70
2018-12-25T02:06:23.738Z,2.60
2018-12-25T02:09:04.283Z,2.70
2018-12-25T02:11:45.201Z,2.70
2018-12-25T02:14:25.890Z,2.70
2018-12-25T02:17:06.230Z,2.70
2018-12-25T02:19:47.098Z,2.80
2018-12-25T02:22:27.596Z,2.70
2018-12-25T02:25:08.313Z,2.70
2018-12-25T02:27:48.865Z,2.60
2018-12-25T02:30:29.760Z,2.70
2018-12-25T02:33:10.380Z,2.60
2018-12-25T02:35:50.745Z,2.70
2018-12-25T02:38:31.226Z,2.70
2018-12-25T02:41:11.603Z,2.70
2018-12-25T02:43:52.854Z,2.70
2018-12-25T02:46:33.295Z,2.70
2018-12-25T02:49:13.839Z,2.60
2018-12-25T02:51:54.712Z,2.60
2018-12-25T02:54:35.231Z,2.60
2018-12-25T02:57:16.024Z,2.60
2018-12-25T02:59:56.592Z,2.60
2018-12-25T03:02:37.385Z,2.60
2018-12-25T03:05:18.030Z,2.60
2018-12-25T03:07:58.715Z,2.50
2018-12-25T03:10:40.353Z,2.50
2018-12-25T03:13:21.604Z,2.50
2018-12-25T03:16:02.207Z,2.50
2018-12-25T03:18:41.100Z,2.60
2018-12-25T03:21:28.955Z,2.60
2018-12-25T03:30:04.489Z,2.50
2018-12-25T03:32:52.340Z,2.50
2018-12-25T03:35:40.215Z,2.50
2018-12-25T03:38:28.054Z,2.50
2018-12-25T03:41:15.927Z,2.50
2018-12-25T03:47:10.711Z,2.60
2018-12-25T03:49:51.381Z,2.60
2018-12-25T03:52:32.259Z,2.60
2018-12-25T03:55:12.914Z,2.70
2018-12-25T03:57:53.439Z,2.70
2018-12-25T04:00:34.204Z,2.70
2018-12-25T04:03:14.891Z,2.70
2018-12-25T04:05:55.330Z,2.70
2018-12-25T04:08:35.651Z,2.70
2018-12-25T04:11:16.036Z,2.70
2018-12-25T04:13:56.799Z,2.70
2018-12-25T04:16:37.440Z,2.70
2018-12-25T04:19:18.327Z,2.70
2018-12-25T04:21:58.694Z,2.60
2018-12-25T04:24:40.469Z,2.70
2018-12-25T04:27:21.483Z,2.70
2018-12-25T04:30:02.152Z,2.70
2018-12-25T04:32:42.980Z,2.70
2018-12-25T04:35:23.343Z,2.70
2018-12-25T04:38:04.675Z,2.80
2018-12-25T04:40:45.811Z,2.70
2018-12-25T04:43:26.891Z,2.70
2018-12-25T04:46:07.452Z,2.70
2018-12-25T04:48:47.916Z,2.70
2018-12-25T04:51:28.709Z,4.50
2018-12-25T04:54:09.447Z,2.70
2018-12-25T04:56:50.055Z,2.70
2018-12-25T04:59:30.358Z,5.50
2018-12-25T05:02:10.989Z,2.70
2018-12-25T05:04:51.539Z,2.70
2018-12-25T05:07:32.179Z,2.70
2018-12-25T05:10:13.265Z,2.70
2018-12-25T05:12:54.060Z,2.70
2018-12-25T05:15:34.756Z,2.80
2018-12-25T05:18:15.218Z,2.80
2018-12-25T05:20:55.996Z,2.80
2018-12-25T05:23:36.612Z,2.90
2018-12-25T05:26:17.166Z,2.90
2018-12-25T05:28:58.444Z,2.90
2018-12-25T05:31:38.990Z,3.00
2018-12-25T05:34:19.753Z,2.90
2018-12-25T05:37:00.230Z,2.80
2018-12-25T05:39:40.866Z,0.10
2018-12-25T05:42:21.341Z,2.80
2018-12-25T05:45:02.488Z,2.90
2018-12-25T05:47:43.124Z,2.80
2018-12-25T05:50:23.624Z,2.80
2018-12-25T05:53:04.224Z,2.80
2018-12-25T05:55:44.715Z,3.00
2018-12-25T05:58:25.325Z,2.90
2018-12-25T06:01:05.796Z,2.90
2018-12-25T06:03:46.663Z,2.90
2018-12-25T06:06:27.016Z,2.90
2018-12-25T06:09:08.060Z,2.80
2018-12-25T06:11:48.818Z,2.80
2018-12-25T06:14:29.620Z,2.90
2018-12-25T06:17:08.461Z,2.90
2018-12-25T06:23:04.821Z,2.90
2018-12-25T06:25:52.694Z,2.90
2018-12-25T06:28:40.545Z,2.90
2018-12-25T06:31:28.481Z,2.90
2018-12-25T06:34:30.255Z,2.90
2018-12-25T06:37:05.970Z,2.90
2018-12-25T06:39:53.816Z,2.80
2018-12-25T06:42:41.681Z,2.80
2018-12-25T06:45:29.562Z,2.80
2018-12-25T06:48:17.410Z,2.90
2018-12-25T06:51:03.730Z,2.80
2018-12-25T06:53:40.835Z,2.80
2018-12-25T06:56:21.705Z,2.80
2018-12-25T06:59:02.566Z,3.00
2018-12-25T07:01:42.831Z,2.90
2018-12-25T07:04:23.571Z,2.90
2018-12-25T07:07:04.371Z,2.90
2018-12-25T07:09:45.071Z,2.90
2018-12-25T07:12:25.830Z,2.90
2018-12-25T07:15:06.340Z,3.00
2018-12-25T07:17:47.570Z,2.90
2018-12-25T07:20:28.916Z,1.00
2018-12-25T07:23:09.778Z,2.90
2018-12-25T07:25:50.980Z,2.90
2018-12-25T07:28:31.345Z,3.00
2018-12-25T07:31:12.109Z,3.00
2018-12-25T07:33:52.663Z,2.90
2018-12-25T07:36:33.148Z,2.90
2018-12-25T07:39:13.813Z,2.90
2018-12-25T07:41:54.140Z,2.90
2018-12-25T07:44:34.658Z,3.00
2018-12-25T07:47:15.301Z,3.00
2018-12-25T07:49:55.965Z,3.00
2018-12-25T07:52:36.694Z,3.00
2018-12-25T07:55:20.669Z,3.00
2018-12-25T07:58:01.957Z,-0.30
2018-12-25T08:00:42.430Z,3.10
2018-12-25T08:03:22.922Z,3.00
2018-12-25T08:06:03.467Z,3.10
2018-12-25T08:08:42.279Z,3.10
2018-12-25T08:11:30.149Z,3.10
2018-12-25T08:14:18.003Z,3.10
2018-12-25T08:20:00.017Z,3.20
2018-12-25T08:22:47.903Z,3.20
2018-12-25T08:25:36.095Z,3.30
2018-12-25T08:28:24.013Z,3.30
2018-12-25T08:34:10.379Z,3.40
2018-12-25T08:36:58.268Z,3.50
2018-12-25T08:39:46.143Z,3.50
2018-12-25T08:42:34.048Z,3.40
2018-12-25T08:45:22.036Z,3.40
2018-12-25T08:48:09.918Z,3.50
2018-12-25T08:50:57.902Z,3.40
2018-12-25T08:53:38.668Z,3.40
2018-12-25T08:56:19.648Z,3.50
2018-12-25T08:59:00.542Z,3.40
2018-12-25T09:01:40.906Z,3.40
2018-12-25T09:04:21.485Z,3.50
2018-12-25T09:07:02.309Z,3.50
2018-12-25T09:09:42.755Z,3.60
2018-12-25T09:12:23.376Z,3.60
2018-12-25T09:15:04.272Z,3.70
2018-12-25T09:17:45.012Z,3.70
2018-12-25T09:20:25.713Z,3.70
2018-12-25T09:23:06.351Z,3.90
2018-12-25T09:25:46.939Z,3.90
2018-12-25T09:28:27.388Z,3.90
2018-12-25T09:31:08.000Z,4.10
2018-12-25T09:33:48.789Z,4.00
2018-12-25T09:36:29.216Z,4.20
2018-12-25T09:39:09.653Z,4.20
2018-12-25T09:41:50.527Z,4.20
2018-12-25T09:44:31.174Z,4.20
2018-12-25T09:47:11.691Z,4.20
2018-12-25T09:49:52.150Z,4.20
2018-12-25T09:52:33.062Z,4.30
2018-12-25T09:55:13.429Z,4.40
2018-12-25T09:57:54.035Z,4.30
2018-12-25T10:00:34.693Z,4.50
2018-12-25T10:03:15.475Z,4.60
2018-12-25T10:05:56.479Z,4.60
2018-12-25T10:08:37.045Z,4.70
2018-12-25T10:11:17.663Z,4.70
2018-12-25T10:13:58.106Z,4.60
2018-12-25T10:16:38.739Z,4.70
2018-12-25T10:19:19.596Z,4.80
2018-12-25T10:22:03.149Z,4.90
2018-12-25T10:24:42.984Z,4.90
2018-12-25T10:27:21.935Z,5.00
2018-12-25T10:30:09.849Z,5.10
2018-12-25T10:32:57.744Z,5.10
2018-12-25T10:35:45.660Z,5.20
2018-12-25T10:38:33.547Z,5.20
2018-12-25T10:41:21.379Z,5.30
2018-12-25T10:44:09.279Z,5.20
2018-12-25T10:46:57.218Z,5.20
2018-12-25T10:49:45.113Z,5.20
2018-12-25T10:52:33.070Z,5.20
2018-12-25T10:55:14.180Z,5.30
2018-12-25T10:57:54.864Z,5.40
2018-12-25T11:00:35.513Z,5.40
2018-12-25T11:03:15.834Z,5.50
2018-12-25T11:05:56.409Z,5.50
2018-12-25T11:08:36.899Z,5.40
2018-12-25T11:11:17.705Z,5.50
2018-12-25T11:13:58.416Z,5.50
2018-12-25T11:16:39.189Z,5.60
2018-12-25T11:19:19.625Z,5.70
2018-12-25T11:22:00.274Z,5.70
2018-12-25T11:24:40.870Z,5.80
2018-12-25T11:27:21.705Z,3.50
2018-12-25T11:30:02.291Z,5.80
2018-12-25T11:32:42.984Z,6.00
2018-12-25T11:35:23.658Z,6.30
2018-12-25T11:38:04.357Z,6.50
2018-12-25T11:40:44.914Z,6.50
2018-12-25T11:43:25.730Z,6.60
2018-12-25T11:46:06.484Z,6.60
2018-12-25T11:48:47.058Z,6.40
2018-12-25T11:51:27.729Z,6.30
2018-12-25T11:54:08.182Z,6.20
2018-12-25T11:56:47.068Z,6.20
2018-12-25T11:59:34.979Z,6.10
2018-12-25T12:02:22.885Z,6.30
2018-12-25T12:05:10.789Z,6.30
2018-12-25T12:07:58.635Z,6.30
2018-12-25T12:10:46.524Z,6.30
2018-12-25T12:13:34.390Z,6.30
2018-12-25T12:19:15.326Z,6.40
2018-12-25T12:22:03.263Z,6.40
2018-12-25T12:24:51.094Z,6.30
2018-12-25T12:30:45.889Z,6.40
2018-12-25T12:33:33.768Z,6.60
2018-12-25T12:36:21.631Z,6.60
2018-12-25T12:42:19.503Z,6.70
2018-12-25T12:45:07.686Z,6.80
2018-12-25T12:47:55.543Z,8.20
2018-12-25T12:53:38.375Z,6.60
2018-12-25T12:56:26.386Z,6.60
2018-12-25T12:59:14.261Z,6.60
2018-12-25T13:02:02.104Z,6.60
2018-12-25T13:04:49.978Z,6.60
2018-12-25T13:07:37.903Z,6.60
2018-12-25T13:10:25.799Z,6.70
2018-12-25T13:13:13.782Z,6.50
2018-12-25T13:16:01.712Z,6.60
2018-12-25T13:18:49.671Z,6.50
2018-12-25T13:21:37.591Z,6.50
2018-12-25T13:24:25.489Z,6.50
2018-12-25T13:27:13.338Z,6.50
2018-12-25T13:32:54.572Z,6.40
2018-12-25T13:35:42.430Z,6.50
2018-12-25T13:38:30.416Z,6.60
2018-12-25T13:41:31.260Z,6.60
2018-12-25T13:44:18.734Z,6.50
2018-12-25T13:47:06.636Z,6.50
2018-12-25T13:49:54.564Z,6.50
2018-12-25T13:52:42.429Z,6.80
2018-12-25T13:55:23.472Z,8.10
2018-12-25T13:58:03.974Z,6.30
2018-12-25T14:00:44.560Z,3.40
2018-12-25T14:03:25.121Z,6.10
2018-12-25T14:06:05.714Z,6.10
2018-12-25T14:08:46.522Z,6.20
2018-12-25T14:11:26.969Z,6.20
2018-12-25T14:14:07.746Z,6.30
2018-12-25T14:16:48.545Z,6.30
2018-12-25T14:19:29.803Z,6.20
2018-12-25T14:22:11.118Z,6.20
2018-12-25T14:24:51.486Z,6.10
2018-12-25T14:27:31.852Z,6.00
2018-12-25T14:30:12.610Z,6.00
2018-12-25T14:32:53.241Z,6.00
2018-12-25T14:35:33.838Z,6.00
2018-12-25T14:38:15.071Z,5.90
2018-12-25T14:40:55.716Z,5.80
2018-12-25T14:43:36.558Z,5.80
2018-12-25T14:46:17.046Z,5.70
2018-12-25T14:48:57.409Z,5.60
2018-12-25T14:51:37.970Z,5.60
2018-12-25T14:54:19.021Z,5.50
2018-12-25T14:56:59.904Z,5.50
2018-12-25T14:59:40.735Z,5.40
2018-12-25T15:02:21.748Z,5.30
2018-12-25T15:05:02.242Z,5.30
2018-12-25T15:07:43.460Z,5.40
2018-12-25T15:10:24.384Z,5.40
2018-12-25T15:13:05.083Z,5.40
2018-12-25T15:15:45.740Z,5.40
2018-12-25T15:18:26.568Z,5.40
2018-12-25T15:21:09.360Z,5.30
2018-12-25T15:23:49.939Z,8.20
2018-12-25T15:26:30.640Z,5.30
2018-12-25T15:29:11.295Z,5.30
2018-12-25T15:31:52.053Z,5.20
2018-12-25T15:34:32.899Z,5.20
2018-12-25T15:37:13.459Z,5.20
2018-12-25T15:39:54.070Z,5.20
2018-12-25T15:42:34.960Z,5.10
2018-12-25T15:45:15.292Z,5.00
2018-12-25T15:47:55.829Z,5.10
2018-12-25T15:50:36.641Z,5.00
2018-12-25T15:53:17.854Z,5.00
2018-12-25T15:55:58.238Z,5.00
2018-12-25T15:58:38.648Z,4.90
2018-12-25T16:01:19.153Z,4.90
2018-12-25T16:03:59.699Z,4.90
2018-12-25T16:06:40.612Z,5.00
2018-12-25T16:09:21.655Z,5.00
2018-12-25T16:12:02.455Z,5.00
2018-12-25T16:14:42.929Z,4.90
2018-12-25T16:17:23.463Z,1.60
2018-12-25T16:20:03.914Z,4.90
2018-12-25T16:22:44.720Z,5.00
2018-12-25T16:25:25.285Z,4.90
2018-12-25T16:28:06.640Z,4.90
2018-12-25T16:30:47.040Z,4.90
2018-12-25T16:33:27.727Z,4.90
2018-12-25T16:36:08.857Z,4.80
2018-12-25T16:38:49.686Z,4.80
2018-12-25T16:41:30.399Z,4.80
2018-12-25T16:44:10.986Z,4.80
2018-12-25T16:46:51.669Z,4.80
2018-12-25T16:49:32.645Z,4.80
2018-12-25T16:52:13.276Z,4.80
2018-12-25T16:54:53.856Z,4.70
2018-12-25T16:57:34.736Z,4.70
2018-12-25T17:00:15.389Z,4.60
2018-12-25T17:02:56.015Z,4.60
2018-12-25T17:05:36.783Z,4.60
2018-12-25T17:08:18.064Z,4.60
2018-12-25T17:10:58.590Z,4.60
2018-12-25T17:13:39.009Z,4.60
2018-12-25T17:16:19.459Z,4.60
2018-12-25T17:18:59.920Z,4.60
2018-12-25T17:21:40.689Z,4.50
2018-12-25T17:24:21.484Z,4.50
2018-12-25T17:27:01.810Z,4.50
2018-12-25T17:29:42.675Z,4.50
2018-12-25T17:32:23.094Z,4.50
2018-12-25T17:35:03.681Z,4.50
2018-12-25T17:37:44.420Z,4.50
2018-12-25T17:40:25.250Z,4.50
2018-12-25T17:43:05.963Z,4.40
2018-12-25T17:45:46.535Z,4.50
2018-12-25T17:48:27.870Z,4.50
2018-12-25T17:51:09.081Z,4.40
2018-12-25T17:53:49.564Z,4.40
2018-12-25T17:56:37.562Z,4.30
2018-12-25T17:59:12.354Z,4.40
2018-12-25T18:01:51.229Z,4.40
2018-12-25T18:04:39.109Z,4.40
2018-12-25T18:07:26.995Z,4.30
2018-12-25T18:10:14.929Z,4.30
2018-12-25T18:13:02.785Z,4.30
2018-12-25T18:15:50.671Z,4.20
2018-12-25T18:21:32.345Z,4.30
2018-12-25T18:24:20.217Z,4.20
2018-12-25T18:27:08.092Z,4.20
2018-12-25T18:32:51.071Z,4.10
2018-12-25T18:35:38.965Z,4.20
2018-12-25T18:38:26.826Z,4.10
2018-12-25T18:44:13.241Z,4.10
2018-12-25T18:47:01.237Z,4.00
2018-12-25T18:49:49.299Z,4.00
2018-12-25T18:52:37.196Z,4.00
2018-12-25T18:55:25.114Z,4.00
2018-12-25T18:58:06.215Z,3.90
2018-12-25T19:00:47.065Z,3.90
2018-12-25T19:03:27.631Z,3.90
2018-12-25T19:06:08.389Z,3.80
2018-12-25T19:08:48.937Z,3.80
2018-12-25T19:11:29.663Z,3.80
2018-12-25T19:14:10.316Z,3.90
2018-12-25T19:16:51.639Z,3.80
2018-12-25T19:19:32.574Z,3.90
2018-12-25T19:22:13.566Z,3.80
2018-12-25T19:24:54.373Z,1.80
2018-12-25T19:27:34.963Z,3.80
2018-12-25T19:30:15.741Z,3.80
2018-12-25T19:32:59.270Z,3.80
2018-12-25T19:35:40.425Z,3.80
2018-12-25T19:38:21.001Z,3.90
2018-12-25T19:41:05.839Z,1.80
2018-12-25T19:43:44.459Z,3.90
2018-12-25T19:46:25.160Z,3.90
2018-12-25T19:49:05.916Z,3.80
2018-12-25T19:51:46.690Z,3.80
2018-12-25T19:54:27.240Z,3.80
2018-12-25T19:57:09.848Z,3.80
2018-12-25T19:59:50.177Z,3.90
2018-12-25T20:02:30.921Z,3.80
2018-12-25T20:05:11.451Z,3.70
2018-12-25T20:07:51.856Z,3.70
2018-12-25T20:10:32.900Z,3.70
2018-12-25T20:13:13.957Z,3.70
2018-12-25T20:15:54.477Z,3.70
2018-12-25T20:18:35.405Z,3.70
2018-12-25T20:21:15.756Z,3.70
2018-12-25T20:23:56.985Z,3.70
2018-12-25T20:26:37.651Z,3.70
2018-12-25T20:29:18.435Z,3.60
2018-12-25T20:31:59.061Z,3.70
2018-12-25T20:34:39.621Z,3.70
2018-12-25T20:37:20.198Z,3.70
2018-12-25T20:40:00.950Z,3.70
2018-12-25T20:42:42.275Z,3.70
2018-12-25T20:45:22.837Z,3.70
2018-12-25T20:48:03.704Z,3.60
2018-12-25T20:50:44.599Z,3.60
2018-12-25T20:53:25.111Z,3.60
2018-12-25T20:56:05.753Z,3.60
2018-12-25T20:58:46.455Z,3.50
2018-12-25T21:01:27.349Z,3.60
2018-12-25T21:04:08.036Z,3.50
2018-12-25T21:06:48.770Z,3.60
2018-12-25T21:09:29.646Z,3.60
2018-12-25T21:12:10.473Z,3.60
2018-12-25T21:14:51.162Z,3.60
2018-12-25T21:17:31.682Z,3.60
2018-12-25T21:20:12.426Z,6.10
2018-12-25T21:22:52.867Z,3.50
2018-12-25T21:25:33.220Z,3.50
2018-12-25T21:28:13.880Z,3.50
2018-12-25T21:30:54.608Z,3.50
2018-12-25T21:33:36.648Z,3.50
2018-12-25T21:36:17.071Z,3.50
2018-12-25T21:38:57.669Z,3.50
2018-12-25T21:41:38.506Z,3.50
2018-12-25T21:44:19.711Z,3.40
2018-12-25T21:47:00.508Z,3.50
2018-12-25T21:49:41.297Z,3.50
2018-12-25T21:52:22.475Z,3.40
2018-12-25T21:55:03.031Z,3.50
2018-12-25T21:57:44.697Z,3.40
2018-12-25T22:00:25.185Z,3.50
2018-12-25T22:03:05.709Z,3.40
2018-12-25T22:05:46.160Z,3.40
2018-12-25T22:08:26.540Z,3.40
2018-12-25T22:11:07.006Z,3.30
2018-12-25T22:13:47.747Z,3.30
2018-12-25T22:16:28.681Z,3.30
2018-12-25T22:19:09.226Z,3.40
2018-12-25T22:21:49.669Z,3.40
2018-12-25T22:24:28.621Z,3.50
2018-12-25T22:27:16.853Z,3.50
2018-12-25T22:30:05.440Z,3.50
2018-12-25T22:32:53.762Z,3.50
2018-12-25T22:35:41.676Z,3.40
2018-12-25T22:38:29.790Z,3.50
2018-12-25T22:41:17.681Z,3.50
2018-12-25T22:44:05.558Z,3.40
2018-12-25T22:46:53.445Z,3.40
2018-12-25T22:49:42.246Z,3.50
2018-12-25T22:52:30.170Z,3.40
2018-12-25T22:55:18.235Z,3.40
2018-12-25T22:58:06.117Z,3.30
2018-12-25T23:00:46.785Z,3.40
2018-12-25T23:03:27.736Z,3.30
2018-12-25T23:06:08.286Z,3.30
2018-12-25T23:08:48.929Z,3.20
2018-12-25T23:11:29.347Z,3.20
2018-12-25T23:14:09.980Z,3.20
2018-12-25T23:16:50.601Z,3.20
2018-12-25T23:19:31.404Z,3.20
2018-12-25T23:22:12.338Z,3.20
2018-12-25T23:24:52.879Z,3.20
2018-12-25T23:27:33.552Z,4.30
2018-12-25T23:30:14.144Z,3.20
2018-12-25T23:32:55.177Z,3.20
2018-12-25T23:35:36.001Z,3.20
2018-12-25T23:38:17.456Z,3.20
2018-12-25T23:40:57.990Z,3.20
2018-12-25T23:43:38.819Z,3.10
2018-12-25T23:46:19.954Z,3.10
2018-12-25T23:49:01.049Z,3.00
2018-12-25T23:51:42.099Z,3.00
2018-12-25T23:54:22.717Z,3.00
2018-12-25T23:57:03.606Z,2.90
2018-12-25T23:59:44.122Z,2.90
